Airfield :
LOGIN :

Register | Disclaimer

   EN    FR    IT 

 










Legend :    VFR   Marginal VFR   IFR   Intensive IFR   Very Intensive IFR
Visi :
Ceiling :
>= 8 km
>= 3000ft
5 to 8 km
1000 to 3000 ft
1500m to 5 km
500 to 1000 ft
800 to 1500m
200 to 500 ft
< 800m
< 200 ft
Symbols :   Thunderstorms  Fog  Heavy snow  Heavy precipitations  Wind > 20 kt
SIGMETs :     Misc.  Thunderstorms  Icing  Turbulence  Mountain Waves  Volcanic Ashes






- Airport Elevation : 52 ft
- IATA code : RNN


EKRN - Bornholm Ronne

CURRENT METAR :
  • 050950Z AUTO 16003KT 9999 NCD 09/03 Q1033

EXPIRED METARs :
  • 050920Z AUTO 18005KT 9999 NCD 08/03 Q1033
  • 050850Z AUTO 16004KT 130V200 9999 NCD 08/03 Q1033
  • 050820Z AUTO 17005KT 9999 FEW051/// 08/04 Q1033
  • 050750Z AUTO 18004KT 9999 SCT050/// 08/03 Q1033
  • 050720Z AUTO 13001KT 9999 NCD 08/04 Q1032

TAF TAF EKRN
Valid from the 05 at 09:00 until the 05 at 18:00 UTC


050823Z 0509/0518 18005KT 9999 FEW040



MET'MAP, your aeronautical weather chart ! - Copyright ORBIFLY December 2007 - Disclaimer

ORBIFLY MET'MAP TEAM :

Programming & Development : Alexandra Zaïnal
Concept & original design : Baudouin d'Aumeries
Assistance for programming : Marc-Olivier Méhu
Technical & hardware support : Manuel Goepfert

Contact : metmap@orbifly.com




SOURCES & CREDITS :

   NOAA